createdAt,value
2023-02-15T00:02:01.692Z,13.40
2023-02-15T00:04:47.056Z,13.37
2023-02-15T00:07:18.850Z,13.80
2023-02-15T00:09:47.952Z,14.80
2023-02-15T00:12:16.902Z,15.47
2023-02-15T00:14:44.904Z,13.33
2023-02-15T00:17:12.936Z,13.70
2023-02-15T00:19:41.243Z,15.10
2023-02-15T00:22:09.344Z,14.03
2023-02-15T00:24:38.663Z,13.80
2023-02-15T00:27:06.654Z,14.40
2023-02-15T00:29:34.613Z,15.67
2023-02-15T00:32:02.631Z,14.77
2023-02-15T00:34:30.801Z,13.87
2023-02-15T00:36:58.786Z,14.17
2023-02-15T00:39:28.192Z,15.50
2023-02-15T00:41:57.559Z,14.77
2023-02-15T00:44:27.195Z,14.67
2023-02-15T00:46:55.180Z,15.17
2023-02-15T00:49:23.164Z,14.13
2023-02-15T00:51:51.136Z,16.20
2023-02-15T00:54:19.263Z,16.10
2023-02-15T00:56:47.248Z,15.03
2023-02-15T00:59:17.031Z,16.13
2023-02-15T01:01:45.005Z,15.77
2023-02-15T01:04:13.023Z,16.37
2023-02-15T01:06:41.020Z,16.03
2023-02-15T01:09:08.973Z,15.97
2023-02-15T01:11:37.052Z,15.93
2023-02-15T01:14:06.385Z,16.60
2023-02-15T01:16:35.714Z,14.83
2023-02-15T01:19:04.632Z,15.90
2023-02-15T01:21:35.239Z,16.80
2023-02-15T01:24:03.262Z,15.83
2023-02-15T01:26:31.201Z,18.13
2023-02-15T01:28:59.222Z,17.00
2023-02-15T01:31:27.381Z,16.67
2023-02-15T01:33:56.842Z,17.50
2023-02-15T01:36:24.845Z,17.07
2023-02-15T01:38:52.852Z,17.00
2023-02-15T01:41:24.964Z,16.70
2023-02-15T01:43:55.616Z,17.00
2023-02-15T01:46:29.588Z,17.83
2023-02-15T01:49:04.925Z,17.87
2023-02-15T01:51:36.764Z,17.27
2023-02-15T01:54:09.363Z,17.23
2023-02-15T01:56:40.090Z,16.47
2023-02-15T01:59:11.600Z,17.23
2023-02-15T02:01:40.256Z,17.17
2023-02-15T02:04:15.565Z,17.53
2023-02-15T02:06:43.712Z,16.43
2023-02-15T02:09:12.448Z,18.07
2023-02-15T02:11:42.409Z,17.30
2023-02-15T02:14:10.677Z,17.27
2023-02-15T02:16:48.683Z,16.97
2023-02-15T02:19:55.396Z,17.70
2023-02-15T02:22:53.345Z,17.53
2023-02-15T02:25:45.006Z,17.33
2023-02-15T02:28:32.246Z,17.73
2023-02-15T02:31:24.668Z,17.53
2023-02-15T02:34:01.891Z,16.90
2023-02-15T02:36:37.525Z,19.07
2023-02-15T02:39:16.029Z,18.50
2023-02-15T02:41:52.588Z,20.60
2023-02-15T02:44:26.910Z,19.73
2023-02-15T02:46:59.559Z,19.00
2023-02-15T02:49:35.257Z,20.90
2023-02-15T02:52:05.149Z,21.73
2023-02-15T02:54:34.663Z,20.60
2023-02-15T02:57:09.816Z,21.93
2023-02-15T02:59:43.084Z,22.17
2023-02-15T03:02:15.500Z,20.80
2023-02-15T03:04:48.700Z,20.47
2023-02-15T03:07:22.951Z,19.97
2023-02-15T03:09:53.544Z,20.23
2023-02-15T03:12:24.509Z,20.00
2023-02-15T03:14:55.496Z,20.80
2023-02-15T03:17:27.029Z,19.40
2023-02-15T03:19:59.827Z,19.20
2023-02-15T03:22:31.198Z,20.23
2023-02-15T03:25:03.015Z,20.07
2023-02-15T03:27:36.221Z,20.17
2023-02-15T03:30:07.007Z,18.40
2023-02-15T03:32:36.499Z,22.13
2023-02-15T03:35:06.983Z,20.40
2023-02-15T03:37:37.881Z,19.13
2023-02-15T03:40:25.874Z,19.80
2023-02-15T03:43:01.892Z,21.00
2023-02-15T03:45:33.569Z,19.23
2023-02-15T03:48:03.531Z,19.50
2023-02-15T03:50:54.817Z,19.53
2023-02-15T03:53:25.497Z,20.40
2023-02-15T03:55:56.660Z,19.33
2023-02-15T03:58:42.190Z,18.60
2023-02-15T04:01:38.786Z,19.23
2023-02-15T04:04:13.712Z,18.40
2023-02-15T04:06:43.060Z,19.67
2023-02-15T04:09:39.872Z,18.83
2023-02-15T04:12:07.983Z,18.37
2023-02-15T04:15:05.110Z,17.53
2023-02-15T04:17:33.312Z,17.47
2023-02-15T04:20:18.765Z,17.83
2023-02-15T04:23:05.730Z,18.30
2023-02-15T04:25:33.721Z,18.43
2023-02-15T04:28:01.715Z,18.00
2023-02-15T04:30:29.812Z,17.93
2023-02-15T04:32:58.556Z,16.73
2023-02-15T04:35:26.688Z,18.23
2023-02-15T04:37:56.888Z,18.83
2023-02-15T04:40:24.938Z,17.50
2023-02-15T04:42:52.893Z,17.67
2023-02-15T04:45:20.858Z,19.07
2023-02-15T04:47:48.844Z,19.20
2023-02-15T04:50:24.085Z,18.10
2023-02-15T04:52:52.257Z,18.60
2023-02-15T04:55:21.689Z,18.57
2023-02-15T04:57:49.653Z,17.53
2023-02-15T05:00:18.107Z,18.47
2023-02-15T05:02:46.116Z,19.33
2023-02-15T05:05:16.117Z,16.90
2023-02-15T05:07:44.155Z,16.67
2023-02-15T05:10:12.273Z,17.23
2023-02-15T05:12:41.702Z,17.30
2023-02-15T05:15:10.668Z,17.23
2023-02-15T05:17:38.967Z,17.53
2023-02-15T05:20:08.122Z,18.17
2023-02-15T05:22:36.109Z,16.53
2023-02-15T05:25:21.565Z,17.50
2023-02-15T05:28:08.342Z,16.57
2023-02-15T05:30:36.490Z,17.73
2023-02-15T05:33:04.615Z,17.13
2023-02-15T05:35:32.584Z,17.07
2023-02-15T05:38:00.534Z,16.97
2023-02-15T05:40:28.594Z,15.80
2023-02-15T05:42:58.295Z,17.87
2023-02-15T05:45:26.512Z,16.87
2023-02-15T05:47:54.792Z,16.43
2023-02-15T05:50:22.798Z,18.67
2023-02-15T05:52:52.455Z,17.67
2023-02-15T05:55:20.745Z,18.10
2023-02-15T05:57:48.805Z,17.43
2023-02-15T06:00:20.090Z,16.27
2023-02-15T06:02:48.542Z,16.90
2023-02-15T06:05:16.711Z,16.03
2023-02-15T06:07:45.562Z,17.57
2023-02-15T06:10:13.925Z,17.60
2023-02-15T06:12:41.909Z,17.57
2023-02-15T06:15:10.675Z,17.13
2023-02-15T06:17:40.050Z,17.53
2023-02-15T06:20:09.441Z,17.57
2023-02-15T06:22:37.491Z,16.07
2023-02-15T06:25:05.937Z,18.97
2023-02-15T06:27:33.940Z,18.23
2023-02-15T06:30:02.085Z,18.60
2023-02-15T06:32:30.165Z,16.93
2023-02-15T06:34:59.558Z,17.43
2023-02-15T06:37:27.564Z,18.13
2023-02-15T06:39:55.541Z,16.53
2023-02-15T06:42:23.693Z,17.17
2023-02-15T06:44:51.678Z,18.23
2023-02-15T06:47:19.682Z,17.77
2023-02-15T06:49:47.660Z,18.13
2023-02-15T06:52:17.046Z,17.40
2023-02-15T06:54:45.095Z,18.10
2023-02-15T06:57:13.064Z,18.37
2023-02-15T06:59:41.027Z,17.80
2023-02-15T07:02:10.230Z,19.63
2023-02-15T07:04:38.239Z,20.03
2023-02-15T07:07:09.923Z,17.53
2023-02-15T07:09:39.379Z,19.00
2023-02-15T07:12:25.474Z,18.67
2023-02-15T07:14:53.586Z,17.13
2023-02-15T07:17:35.581Z,18.80
2023-02-15T07:20:04.835Z,18.47
2023-02-15T07:22:34.949Z,17.80
2023-02-15T07:25:04.509Z,19.70
2023-02-15T07:27:33.551Z,19.17
2023-02-15T07:30:01.955Z,23.87
2023-02-15T07:32:31.358Z,33.50
2023-02-15T07:34:59.545Z,28.20
2023-02-15T07:37:28.232Z,24.77
2023-02-15T07:39:56.237Z,20.33
2023-02-15T07:42:25.549Z,20.87
2023-02-15T07:44:53.875Z,22.57
2023-02-15T07:47:21.839Z,20.83
2023-02-15T07:49:50.556Z,25.00
2023-02-15T07:52:18.569Z,23.77
2023-02-15T07:54:46.545Z,20.73
2023-02-15T07:57:14.487Z,20.43
2023-02-15T07:59:43.816Z,20.37
2023-02-15T08:02:12.703Z,21.13
2023-02-15T08:04:40.961Z,21.40
2023-02-15T08:07:08.970Z,20.37
2023-02-15T08:09:36.954Z,21.07
2023-02-15T08:12:05.883Z,19.77
2023-02-15T08:14:33.874Z,21.57
2023-02-15T08:17:03.683Z,20.53
2023-02-15T08:19:33.216Z,21.67
2023-02-15T08:22:03.213Z,20.50
2023-02-15T08:24:32.799Z,21.60
2023-02-15T08:27:05.936Z,20.70
2023-02-15T08:29:35.245Z,21.10
2023-02-15T08:32:07.579Z,22.00
2023-02-15T08:34:37.020Z,21.93
2023-02-15T08:37:05.073Z,21.60
2023-02-15T08:39:33.095Z,20.77
2023-02-15T08:42:01.337Z,23.57
2023-02-15T08:44:29.732Z,22.07
2023-02-15T08:47:03.468Z,20.80
2023-02-15T08:49:33.184Z,20.43
2023-02-15T08:52:01.671Z,20.80
2023-02-15T08:54:29.887Z,21.53
2023-02-15T08:56:57.884Z,21.63
2023-02-15T08:59:27.900Z,21.80
2023-02-15T09:01:56.523Z,22.60
2023-02-15T09:04:24.599Z,22.47
2023-02-15T09:06:54.351Z,22.53
2023-02-15T09:09:23.121Z,21.87
2023-02-15T09:11:57.833Z,22.20
2023-02-15T09:14:28.019Z,23.47
2023-02-15T09:16:56.531Z,22.33
2023-02-15T09:19:25.669Z,20.83
2023-02-15T09:21:55.468Z,22.47
2023-02-15T09:24:23.632Z,20.27
2023-02-15T09:26:51.621Z,23.07
2023-02-15T09:29:20.818Z,21.80
2023-02-15T09:31:50.805Z,21.43
2023-02-15T09:34:20.661Z,23.23
2023-02-15T09:36:49.030Z,21.77
2023-02-15T09:39:20.814Z,21.53
2023-02-15T09:42:26.332Z,21.77
2023-02-15T09:45:07.909Z,22.90
2023-02-15T09:48:02.866Z,20.67
2023-02-15T09:50:38.495Z,21.70
2023-02-15T09:53:27.395Z,21.63
2023-02-15T09:56:04.297Z,20.93
2023-02-15T09:58:41.208Z,22.33
2023-02-15T10:01:22.422Z,20.60
2023-02-15T10:04:08.524Z,20.07
2023-02-15T10:06:43.097Z,19.93
2023-02-15T10:09:32.911Z,19.10
2023-02-15T10:12:27.603Z,19.50
2023-02-15T10:15:21.964Z,20.63
2023-02-15T10:18:07.285Z,20.40
2023-02-15T10:20:47.407Z,20.00
2023-02-15T10:23:44.106Z,20.00
2023-02-15T10:26:17.860Z,19.27
2023-02-15T10:28:50.640Z,19.67
2023-02-15T10:31:28.365Z,20.10
2023-02-15T10:34:12.548Z,19.87
2023-02-15T10:37:02.921Z,20.70
2023-02-15T10:39:39.790Z,18.67
2023-02-15T10:42:17.421Z,19.73
2023-02-15T10:44:59.118Z,19.03
2023-02-15T10:47:40.512Z,19.97
2023-02-15T10:50:22.825Z,19.67
2023-02-15T10:53:05.564Z,19.73
2023-02-15T10:55:47.618Z,19.27
2023-02-15T10:58:27.312Z,18.00
2023-02-15T11:01:05.672Z,18.73
2023-02-15T11:03:51.221Z,18.57
2023-02-15T11:06:21.892Z,17.37
2023-02-15T11:08:54.266Z,18.90
2023-02-15T11:11:25.196Z,17.80
2023-02-15T11:13:58.729Z,20.23
2023-02-15T11:16:31.901Z,17.97
2023-02-15T11:19:06.714Z,18.50
2023-02-15T11:21:39.812Z,18.30
2023-02-15T11:24:12.080Z,18.03
2023-02-15T11:26:44.750Z,18.10
2023-02-15T11:29:19.635Z,17.87
2023-02-15T11:31:53.040Z,16.50
2023-02-15T11:34:26.741Z,17.50
2023-02-15T11:36:57.801Z,21.63
2023-02-15T11:39:29.481Z,17.50
2023-02-15T11:42:04.694Z,16.67
2023-02-15T11:44:37.152Z,18.60
2023-02-15T11:47:12.349Z,17.90
2023-02-15T11:49:41.185Z,16.00
2023-02-15T11:52:13.533Z,17.23
2023-02-15T11:54:45.409Z,17.07
2023-02-15T11:57:22.307Z,16.87
2023-02-15T11:59:55.567Z,16.50
2023-02-15T12:02:27.580Z,17.07
2023-02-15T12:04:58.878Z,17.17
2023-02-15T12:07:29.994Z,15.83
2023-02-15T12:10:05.221Z,15.73
2023-02-15T12:12:34.829Z,16.43
2023-02-15T12:15:04.316Z,15.60
2023-02-15T12:17:36.332Z,16.33
2023-02-15T12:20:08.899Z,15.13
2023-02-15T12:22:39.368Z,13.63
2023-02-15T12:25:24.173Z,14.83
2023-02-15T12:27:52.650Z,14.63
2023-02-15T12:30:34.410Z,14.20
2023-02-15T12:33:16.103Z,13.97
2023-02-15T12:35:45.082Z,15.67
2023-02-15T12:38:29.429Z,14.60
2023-02-15T12:41:02.922Z,14.67
2023-02-15T12:43:34.976Z,14.50
2023-02-15T12:46:22.457Z,14.97
2023-02-15T12:49:08.696Z,14.20
2023-02-15T12:51:46.262Z,13.97
2023-02-15T12:54:39.614Z,13.83
2023-02-15T12:57:32.466Z,14.23
2023-02-15T13:00:02.629Z,14.03
2023-02-15T13:02:35.365Z,14.13
2023-02-15T13:05:19.512Z,14.20
2023-02-15T13:07:51.203Z,14.87
2023-02-15T13:10:27.883Z,13.00
2023-02-15T13:12:58.609Z,13.27
2023-02-15T13:15:31.592Z,13.57
2023-02-15T13:18:01.548Z,13.87
2023-02-15T13:20:31.624Z,13.23
2023-02-15T13:23:01.742Z,13.23
2023-02-15T13:25:35.411Z,14.73
2023-02-15T13:28:05.213Z,13.20
2023-02-15T13:30:37.021Z,12.83
2023-02-15T13:33:07.711Z,13.57
2023-02-15T13:35:45.526Z,13.43
2023-02-15T13:38:33.913Z,12.90
2023-02-15T13:41:06.950Z,12.57
2023-02-15T13:43:44.325Z,11.93
2023-02-15T13:46:25.164Z,12.87
2023-02-15T13:49:03.560Z,12.10
2023-02-15T13:51:40.386Z,12.63
2023-02-15T13:54:38.759Z,13.37
2023-02-15T13:57:26.658Z,12.30
2023-02-15T14:00:14.760Z,13.50
2023-02-15T14:03:11.909Z,11.73
2023-02-15T14:05:53.952Z,13.20
2023-02-15T14:08:38.321Z,12.90
2023-02-15T14:11:15.100Z,12.77
2023-02-15T14:13:57.988Z,12.83
2023-02-15T14:16:35.530Z,11.70
2023-02-15T14:19:16.063Z,11.83
2023-02-15T14:21:49.010Z,11.33
2023-02-15T14:24:32.227Z,10.90
2023-02-15T14:27:11.453Z,11.33
2023-02-15T14:29:50.060Z,12.33
2023-02-15T14:32:25.792Z,11.87
2023-02-15T14:34:57.035Z,11.37
2023-02-15T14:37:35.223Z,11.87
2023-02-15T14:40:27.766Z,11.27
2023-02-15T14:43:00.723Z,11.00
2023-02-15T14:45:37.990Z,11.47
2023-02-15T14:48:13.877Z,10.70
2023-02-15T14:50:47.492Z,11.50
2023-02-15T14:53:39.585Z,10.57
2023-02-15T14:56:19.200Z,11.23
2023-02-15T14:59:21.703Z,11.43
2023-02-15T15:01:59.694Z,9.83
2023-02-15T15:04:32.778Z,10.50
2023-02-15T15:07:07.839Z,10.67
2023-02-15T15:09:38.163Z,10.60
2023-02-15T15:12:32.822Z,10.17
2023-02-15T15:15:02.024Z,9.57
2023-02-15T15:17:55.164Z,11.27
2023-02-15T15:20:51.227Z,11.43
2023-02-15T15:23:52.834Z,10.50
2023-02-15T15:26:37.846Z,10.47
2023-02-15T15:29:08.812Z,9.63
2023-02-15T15:31:45.958Z,10.50
2023-02-15T15:35:05.464Z,11.57
2023-02-15T15:37:52.440Z,10.90
2023-02-15T15:40:44.135Z,11.60
2023-02-15T15:43:55.464Z,9.80
2023-02-15T15:46:58.134Z,9.57
2023-02-15T15:49:31.437Z,8.53
2023-02-15T15:52:03.298Z,9.50
2023-02-15T15:54:32.685Z,10.47
2023-02-15T15:57:04.199Z,10.93
2023-02-15T15:59:34.160Z,10.57
2023-02-15T16:02:08.755Z,10.67
2023-02-15T16:04:37.488Z,11.90
2023-02-15T16:07:26.322Z,11.63
2023-02-15T16:09:59.126Z,12.87
2023-02-15T16:12:28.934Z,12.20
2023-02-15T16:14:57.991Z,10.93
2023-02-15T16:17:32.692Z,12.40
2023-02-15T16:20:05.017Z,12.50
2023-02-15T16:22:35.254Z,12.77
2023-02-15T16:25:31.529Z,11.60
2023-02-15T16:28:07.636Z,11.20
2023-02-15T16:30:37.580Z,12.37
2023-02-15T16:33:09.491Z,14.70
2023-02-15T16:35:39.364Z,14.03
2023-02-15T16:38:07.782Z,16.70
2023-02-15T16:40:52.143Z,12.70
2023-02-15T16:43:26.542Z,14.57
2023-02-15T16:46:00.450Z,15.23
2023-02-15T16:48:30.112Z,14.00
2023-02-15T16:50:59.894Z,16.67
2023-02-15T16:53:29.537Z,13.57
2023-02-15T16:55:59.819Z,11.83
2023-02-15T16:58:33.494Z,11.93
2023-02-15T17:01:04.186Z,10.57
2023-02-15T17:03:33.940Z,11.47
2023-02-15T17:06:04.333Z,10.00
2023-02-15T17:08:34.887Z,10.10
2023-02-15T17:11:13.692Z,8.37
2023-02-15T17:14:03.533Z,8.40
2023-02-15T17:16:34.210Z,8.33
2023-02-15T17:19:09.989Z,7.93
2023-02-15T17:21:44.573Z,9.30
2023-02-15T17:24:19.708Z,9.97
2023-02-15T17:26:52.488Z,8.83
2023-02-15T17:29:27.446Z,9.23
2023-02-15T17:31:58.764Z,9.23
2023-02-15T17:35:17.545Z,8.27
2023-02-15T17:37:48.909Z,8.57
2023-02-15T17:40:25.624Z,9.33
2023-02-15T17:42:54.038Z,8.40
2023-02-15T17:45:23.084Z,8.60
2023-02-15T17:47:51.401Z,8.13
2023-02-15T17:50:22.588Z,9.43
2023-02-15T17:52:52.604Z,8.60
2023-02-15T17:55:39.422Z,7.90
2023-02-15T17:58:09.665Z,8.77
2023-02-15T18:00:59.042Z,9.47
2023-02-15T18:03:52.120Z,9.20
2023-02-15T18:06:37.658Z,10.67
2023-02-15T18:09:25.219Z,10.67
2023-02-15T18:11:53.223Z,9.90
2023-02-15T18:14:21.195Z,10.10
2023-02-15T18:16:49.240Z,10.47
2023-02-15T18:19:19.025Z,11.10
2023-02-15T18:21:48.037Z,10.07
2023-02-15T18:24:20.189Z,10.80
2023-02-15T18:26:49.105Z,13.77
2023-02-15T18:29:17.426Z,11.00
2023-02-15T18:31:48.215Z,11.03
2023-02-15T18:34:24.690Z,10.70
2023-02-15T18:36:53.319Z,11.23
2023-02-15T18:39:33.579Z,11.47
2023-02-15T18:42:01.698Z,10.90
2023-02-15T18:44:29.663Z,11.23
2023-02-15T18:46:57.670Z,13.07
2023-02-15T18:49:25.738Z,13.80
2023-02-15T18:51:54.683Z,14.17
2023-02-15T18:54:26.396Z,17.47
2023-02-15T18:56:57.886Z,17.30
2023-02-15T18:59:27.868Z,17.70
2023-02-15T19:01:55.830Z,21.47
2023-02-15T19:04:25.773Z,24.37
2023-02-15T19:06:55.092Z,22.30
2023-02-15T19:09:25.604Z,22.10
2023-02-15T19:11:55.675Z,21.00
2023-02-15T19:14:28.866Z,23.97
2023-02-15T19:16:57.630Z,22.60
2023-02-15T19:19:26.397Z,22.27
2023-02-15T19:21:54.778Z,23.23
2023-02-15T19:24:26.739Z,21.90
2023-02-15T19:26:54.718Z,19.37
2023-02-15T19:29:27.281Z,21.10
2023-02-15T19:31:55.445Z,18.77
2023-02-15T19:34:23.511Z,18.93
2023-02-15T19:36:54.345Z,18.93
2023-02-15T19:39:29.916Z,19.20
2023-02-15T19:41:58.071Z,19.33
2023-02-15T19:44:26.235Z,18.17
2023-02-15T19:46:54.215Z,19.43
2023-02-15T19:49:22.206Z,17.87
2023-02-15T19:51:50.537Z,15.93
2023-02-15T19:54:28.124Z,15.93
2023-02-15T19:56:58.056Z,16.63
2023-02-15T19:59:27.589Z,16.00
2023-02-15T20:01:56.110Z,15.80
2023-02-15T20:04:24.487Z,16.00
2023-02-15T20:06:53.679Z,13.50
2023-02-15T20:09:24.036Z,13.10
2023-02-15T20:11:52.613Z,13.83
2023-02-15T20:14:22.686Z,13.60
2023-02-15T20:16:51.041Z,14.47
2023-02-15T20:19:19.076Z,15.43
2023-02-15T20:21:51.742Z,13.10
2023-02-15T20:24:22.285Z,13.60
2023-02-15T20:26:50.463Z,14.43
2023-02-15T20:29:19.976Z,18.27
2023-02-15T20:31:49.775Z,16.63
2023-02-15T20:34:17.863Z,18.10
2023-02-15T20:36:45.840Z,17.77
2023-02-15T20:39:17.396Z,16.50
2023-02-15T20:41:48.255Z,15.83
2023-02-15T20:44:22.730Z,13.67
2023-02-15T20:46:53.765Z,15.93
2023-02-15T20:49:21.848Z,14.03
2023-02-15T20:51:49.845Z,14.37
2023-02-15T20:54:19.445Z,13.43
2023-02-15T20:56:48.297Z,13.67
2023-02-15T20:59:28.997Z,13.43
2023-02-15T21:02:02.101Z,13.07
2023-02-15T21:04:32.431Z,12.33
2023-02-15T21:07:00.954Z,12.20
2023-02-15T21:09:29.392Z,13.10
2023-02-15T21:11:59.411Z,11.67
2023-02-15T21:14:29.388Z,11.77
2023-02-15T21:16:58.781Z,12.50
2023-02-15T21:19:26.811Z,11.63
2023-02-15T21:21:55.129Z,12.20
2023-02-15T21:24:25.416Z,11.13
2023-02-15T21:26:54.679Z,11.23
2023-02-15T21:29:25.513Z,10.87
2023-02-15T21:31:53.688Z,12.03
2023-02-15T21:34:23.073Z,10.67
2023-02-15T21:36:51.660Z,10.53
2023-02-15T21:39:22.038Z,10.40
2023-02-15T21:42:09.088Z,10.10
2023-02-15T21:44:54.834Z,11.50
2023-02-15T21:47:45.159Z,11.00
2023-02-15T21:50:34.926Z,11.43
2023-02-15T21:53:04.346Z,11.70
2023-02-15T21:55:32.881Z,11.93
2023-02-15T21:58:00.994Z,11.57
2023-02-15T22:00:31.183Z,12.07
2023-02-15T22:03:00.936Z,12.57
2023-02-15T22:05:32.136Z,11.73
2023-02-15T22:08:01.237Z,12.10
2023-02-15T22:10:32.197Z,12.37
2023-02-15T22:13:01.779Z,12.03
2023-02-15T22:15:35.611Z,12.37
2023-02-15T22:18:04.635Z,11.47
2023-02-15T22:20:33.986Z,13.60
2023-02-15T22:23:02.006Z,12.40
2023-02-15T22:25:30.019Z,13.30
2023-02-15T22:27:58.137Z,12.50
2023-02-15T22:30:28.019Z,13.03
2023-02-15T22:32:57.024Z,11.23
2023-02-15T22:35:27.340Z,12.00
2023-02-15T22:37:56.818Z,12.37
2023-02-15T22:40:30.055Z,11.97
2023-02-15T22:42:59.397Z,12.10
2023-02-15T22:45:29.094Z,12.80
2023-02-15T22:47:59.634Z,12.20
2023-02-15T22:50:29.790Z,13.73
2023-02-15T22:53:01.388Z,13.33
2023-02-15T22:55:32.128Z,14.40
2023-02-15T22:58:00.660Z,12.63
2023-02-15T23:00:32.241Z,12.87
2023-02-15T23:03:00.361Z,13.27
2023-02-15T23:05:30.929Z,13.07
2023-02-15T23:08:00.343Z,13.37
2023-02-15T23:10:30.167Z,12.03
2023-02-15T23:13:17.203Z,12.50
2023-02-15T23:15:48.723Z,12.20
2023-02-15T23:18:19.811Z,13.90
2023-02-15T23:20:50.700Z,13.43
2023-02-15T23:23:23.841Z,13.43
2023-02-15T23:25:51.914Z,12.40
2023-02-15T23:28:23.092Z,13.70
2023-02-15T23:30:51.664Z,13.13
2023-02-15T23:33:22.297Z,13.90
2023-02-15T23:35:50.541Z,13.80
2023-02-15T23:38:26.532Z,13.57
2023-02-15T23:41:14.731Z,13.97
2023-02-15T23:43:45.453Z,12.63
2023-02-15T23:46:23.873Z,12.63
2023-02-15T23:48:52.867Z,12.93
2023-02-15T23:51:21.918Z,13.07
2023-02-15T23:53:51.305Z,11.70
2023-02-15T23:56:19.442Z,12.63
2023-02-15T23:58:47.909Z,12.40
